sensor_id;sensor_type;location;lat;lon;timestamp;P1;durP1;ratioP1;P2;durP2;ratioP2
43646;SDS011;56152;49.996;18.980;2023-03-01T00:00:46;77.63;;;35.57;;
43646;SDS011;56152;49.996;18.980;2023-03-01T00:05:49;74.93;;;32.73;;
43646;SDS011;56152;49.996;18.980;2023-03-01T00:11:03;75.10;;;34.77;;
43646;SDS011;56152;49.996;18.980;2023-03-01T00:16:08;82.57;;;37.67;;
43646;SDS011;56152;49.996;18.980;2023-03-01T00:21:19;98.63;;;40.43;;
43646;SDS011;56152;49.996;18.980;2023-03-01T00:26:25;79.37;;;34.70;;
43646;SDS011;56152;49.996;18.980;2023-03-01T00:31:28;89.13;;;37.83;;
43646;SDS011;56152;49.996;18.980;2023-03-01T00:36:34;121.30;;;46.97;;
43646;SDS011;56152;49.996;18.980;2023-03-01T00:41:39;95.30;;;39.30;;
43646;SDS011;56152;49.996;18.980;2023-03-01T00:46:41;94.00;;;41.17;;
43646;SDS011;56152;49.996;18.980;2023-03-01T00:51:44;98.63;;;41.43;;
43646;SDS011;56152;49.996;18.980;2023-03-01T00:56:47;66.43;;;32.80;;
43646;SDS011;56152;49.996;18.980;2023-03-01T01:01:50;92.83;;;41.20;;
43646;SDS011;56152;49.996;18.980;2023-03-01T01:06:53;93.40;;;42.97;;
43646;SDS011;56152;49.996;18.980;2023-03-01T01:11:56;93.37;;;43.90;;
43646;SDS011;56152;49.996;18.980;2023-03-01T01:17:01;91.27;;;40.70;;
43646;SDS011;56152;49.996;18.980;2023-03-01T01:22:04;86.83;;;37.17;;
43646;SDS011;56152;49.996;18.980;2023-03-01T01:27:08;91.83;;;41.97;;
43646;SDS011;56152;49.996;18.980;2023-03-01T01:32:11;109.50;;;47.33;;
43646;SDS011;56152;49.996;18.980;2023-03-01T01:37:13;104.50;;;48.03;;
43646;SDS011;56152;49.996;18.980;2023-03-01T01:42:17;98.40;;;39.47;;
43646;SDS011;56152;49.996;18.980;2023-03-01T01:47:20;88.47;;;42.40;;
43646;SDS011;56152;49.996;18.980;2023-03-01T01:52:25;82.07;;;38.50;;
43646;SDS011;56152;49.996;18.980;2023-03-01T01:57:36;113.77;;;55.97;;
43646;SDS011;56152;49.996;18.980;2023-03-01T02:02:41;94.63;;;44.93;;
43646;SDS011;56152;49.996;18.980;2023-03-01T02:07:44;117.90;;;53.17;;
43646;SDS011;56152;49.996;18.980;2023-03-01T02:12:49;122.60;;;58.03;;
43646;SDS011;56152;49.996;18.980;2023-03-01T02:17:52;129.50;;;54.07;;
43646;SDS011;56152;49.996;18.980;2023-03-01T02:22:55;112.73;;;53.17;;
43646;SDS011;56152;49.996;18.980;2023-03-01T02:28:01;78.63;;;36.90;;
43646;SDS011;56152;49.996;18.980;2023-03-01T02:33:13;93.17;;;43.27;;
43646;SDS011;56152;49.996;18.980;2023-03-01T02:38:15;84.70;;;41.00;;
43646;SDS011;56152;49.996;18.980;2023-03-01T02:43:18;99.23;;;42.63;;
43646;SDS011;56152;49.996;18.980;2023-03-01T02:48:26;92.37;;;41.70;;
43646;SDS011;56152;49.996;18.980;2023-03-01T02:53:28;99.57;;;42.97;;
43646;SDS011;56152;49.996;18.980;2023-03-01T02:58:39;111.47;;;47.97;;
43646;SDS011;56152;49.996;18.980;2023-03-01T03:03:47;102.10;;;47.07;;
43646;SDS011;56152;49.996;18.980;2023-03-01T03:08:49;100.87;;;41.77;;
43646;SDS011;56152;49.996;18.980;2023-03-01T03:13:52;137.47;;;54.53;;
43646;SDS011;56152;49.996;18.980;2023-03-01T03:18:56;132.70;;;57.27;;
43646;SDS011;56152;49.996;18.980;2023-03-01T03:24:05;138.02;;;58.85;;
43646;SDS011;56152;49.996;18.980;2023-03-01T03:29:07;149.10;;;60.23;;
43646;SDS011;56152;49.996;18.980;2023-03-01T03:34:12;141.40;;;61.50;;
43646;SDS011;56152;49.996;18.980;2023-03-01T03:39:17;121.73;;;53.90;;
43646;SDS011;56152;49.996;18.980;2023-03-01T03:44:20;128.70;;;53.40;;
43646;SDS011;56152;49.996;18.980;2023-03-01T03:49:24;107.40;;;49.50;;
43646;SDS011;56152;49.996;18.980;2023-03-01T03:54:26;131.67;;;50.63;;
43646;SDS011;56152;49.996;18.980;2023-03-01T03:59:29;131.60;;;54.57;;
43646;SDS011;56152;49.996;18.980;2023-03-01T04:04:33;139.90;;;54.97;;
43646;SDS011;56152;49.996;18.980;2023-03-01T04:09:36;124.67;;;52.03;;
43646;SDS011;56152;49.996;18.980;2023-03-01T04:14:38;125.43;;;51.10;;
43646;SDS011;56152;49.996;18.980;2023-03-01T04:19:42;145.67;;;59.50;;
43646;SDS011;56152;49.996;18.980;2023-03-01T04:24:44;137.47;;;56.37;;
43646;SDS011;56152;49.996;18.980;2023-03-01T04:29:47;151.67;;;60.60;;
43646;SDS011;56152;49.996;18.980;2023-03-01T04:34:51;179.60;;;71.83;;
43646;SDS011;56152;49.996;18.980;2023-03-01T04:39:53;144.77;;;55.03;;
43646;SDS011;56152;49.996;18.980;2023-03-01T04:44:59;142.17;;;54.57;;
43646;SDS011;56152;49.996;18.980;2023-03-01T04:50:02;129.57;;;56.40;;
43646;SDS011;56152;49.996;18.980;2023-03-01T04:55:05;121.40;;;50.47;;
43646;SDS011;56152;49.996;18.980;2023-03-01T05:00:09;140.87;;;61.53;;
43646;SDS011;56152;49.996;18.980;2023-03-01T05:05:23;143.53;;;60.37;;
43646;SDS011;56152;49.996;18.980;2023-03-01T05:10:28;124.53;;;56.20;;
43646;SDS011;56152;49.996;18.980;2023-03-01T05:15:31;99.90;;;49.93;;
43646;SDS011;56152;49.996;18.980;2023-03-01T05:20:35;92.83;;;42.07;;
43646;SDS011;56152;49.996;18.980;2023-03-01T05:25:38;87.97;;;41.70;;
43646;SDS011;56152;49.996;18.980;2023-03-01T05:30:41;98.57;;;41.13;;
43646;SDS011;56152;49.996;18.980;2023-03-01T05:35:45;87.97;;;40.20;;
43646;SDS011;56152;49.996;18.980;2023-03-01T05:40:48;117.37;;;50.67;;
43646;SDS011;56152;49.996;18.980;2023-03-01T05:45:59;123.47;;;52.00;;
43646;SDS011;56152;49.996;18.980;2023-03-01T05:51:07;127.87;;;54.00;;
43646;SDS011;56152;49.996;18.980;2023-03-01T05:56:09;160.87;;;61.93;;
43646;SDS011;56152;49.996;18.980;2023-03-01T06:01:12;139.77;;;57.27;;
43646;SDS011;56152;49.996;18.980;2023-03-01T06:06:16;145.60;;;66.03;;
43646;SDS011;56152;49.996;18.980;2023-03-01T06:11:18;147.63;;;65.90;;
43646;SDS011;56152;49.996;18.980;2023-03-01T06:16:21;174.67;;;74.37;;
43646;SDS011;56152;49.996;18.980;2023-03-01T06:21:25;311.47;;;103.20;;
43646;SDS011;56152;49.996;18.980;2023-03-01T06:26:27;154.57;;;70.13;;
43646;SDS011;56152;49.996;18.980;2023-03-01T06:31:31;152.47;;;69.43;;
43646;SDS011;56152;49.996;18.980;2023-03-01T06:36:35;149.03;;;63.23;;
43646;SDS011;56152;49.996;18.980;2023-03-01T06:41:37;150.93;;;66.90;;
43646;SDS011;56152;49.996;18.980;2023-03-01T06:46:42;174.83;;;69.47;;
43646;SDS011;56152;49.996;18.980;2023-03-01T06:51:48;154.43;;;68.23;;
43646;SDS011;56152;49.996;18.980;2023-03-01T06:56:51;156.40;;;73.80;;
43646;SDS011;56152;49.996;18.980;2023-03-01T07:01:54;162.10;;;76.10;;
43646;SDS011;56152;49.996;18.980;2023-03-01T07:07:00;188.77;;;88.70;;
43646;SDS011;56152;49.996;18.980;2023-03-01T07:12:03;202.70;;;92.53;;
43646;SDS011;56152;49.996;18.980;2023-03-01T07:17:05;194.93;;;92.30;;
43646;SDS011;56152;49.996;18.980;2023-03-01T07:22:11;171.87;;;84.30;;
43646;SDS011;56152;49.996;18.980;2023-03-01T07:27:13;153.33;;;78.50;;
43646;SDS011;56152;49.996;18.980;2023-03-01T07:32:15;148.87;;;68.23;;
43646;SDS011;56152;49.996;18.980;2023-03-01T07:37:20;124.00;;;59.43;;
43646;SDS011;56152;49.996;18.980;2023-03-01T07:42:25;123.30;;;62.30;;
43646;SDS011;56152;49.996;18.980;2023-03-01T07:47:27;98.70;;;54.30;;
43646;SDS011;56152;49.996;18.980;2023-03-01T07:52:30;120.30;;;53.83;;
43646;SDS011;56152;49.996;18.980;2023-03-01T07:57:32;147.87;;;68.13;;
43646;SDS011;56152;49.996;18.980;2023-03-01T08:02:35;74.20;;;37.97;;
43646;SDS011;56152;49.996;18.980;2023-03-01T08:07:39;54.43;;;33.10;;
43646;SDS011;56152;49.996;18.980;2023-03-01T08:12:42;58.53;;;33.40;;
43646;SDS011;56152;49.996;18.980;2023-03-01T08:17:45;57.40;;;30.67;;
43646;SDS011;56152;49.996;18.980;2023-03-01T08:22:51;54.80;;;28.52;;
43646;SDS011;56152;49.996;18.980;2023-03-01T08:27:54;52.72;;;29.35;;
43646;SDS011;56152;49.996;18.980;2023-03-01T08:32:56;47.00;;;24.88;;
43646;SDS011;56152;49.996;18.980;2023-03-01T08:38:01;50.13;;;28.15;;
43646;SDS011;56152;49.996;18.980;2023-03-01T08:43:03;45.25;;;25.88;;
43646;SDS011;56152;49.996;18.980;2023-03-01T08:48:07;39.58;;;22.02;;
43646;SDS011;56152;49.996;18.980;2023-03-01T08:53:12;33.83;;;19.70;;
43646;SDS011;56152;49.996;18.980;2023-03-01T08:58:14;39.45;;;22.52;;
43646;SDS011;56152;49.996;18.980;2023-03-01T09:03:16;41.30;;;22.90;;
43646;SDS011;56152;49.996;18.980;2023-03-01T09:08:23;29.23;;;17.15;;
43646;SDS011;56152;49.996;18.980;2023-03-01T09:13:27;39.05;;;20.17;;
43646;SDS011;56152;49.996;18.980;2023-03-01T09:18:31;43.00;;;22.38;;
43646;SDS011;56152;49.996;18.980;2023-03-01T09:23:36;44.50;;;23.67;;
43646;SDS011;56152;49.996;18.980;2023-03-01T09:28:39;37.58;;;21.02;;
43646;SDS011;56152;49.996;18.980;2023-03-01T09:33:49;34.90;;;16.90;;
43646;SDS011;56152;49.996;18.980;2023-03-01T09:38:58;27.83;;;16.60;;
43646;SDS011;56152;49.996;18.980;2023-03-01T09:44:01;33.95;;;19.85;;
43646;SDS011;56152;49.996;18.980;2023-03-01T09:49:10;28.48;;;15.80;;
43646;SDS011;56152;49.996;18.980;2023-03-01T09:54:20;49.97;;;22.45;;
43646;SDS011;56152;49.996;18.980;2023-03-01T09:59:23;47.42;;;21.88;;
43646;SDS011;56152;49.996;18.980;2023-03-01T10:04:33;27.70;;;15.10;;
43646;SDS011;56152;49.996;18.980;2023-03-01T10:09:48;31.83;;;16.40;;
43646;SDS011;56152;49.996;18.980;2023-03-01T10:14:53;46.85;;;19.48;;
43646;SDS011;56152;49.996;18.980;2023-03-01T10:20:19;53.50;;;21.65;;
43646;SDS011;56152;49.996;18.980;2023-03-01T10:25:34;58.80;;;22.75;;
43646;SDS011;56152;49.996;18.980;2023-03-01T10:30:46;48.05;;;21.23;;
43646;SDS011;56152;49.996;18.980;2023-03-01T10:35:52;29.15;;;15.10;;
43646;SDS011;56152;49.996;18.980;2023-03-01T10:40:58;37.85;;;16.90;;
43646;SDS011;56152;49.996;18.980;2023-03-01T10:51:23;31.98;;;17.45;;
43646;SDS011;56152;49.996;18.980;2023-03-01T10:56:27;29.27;;;17.15;;
43646;SDS011;56152;49.996;18.980;2023-03-01T11:01:34;26.38;;;13.73;;
43646;SDS011;56152;49.996;18.980;2023-03-01T11:06:37;25.05;;;13.80;;
43646;SDS011;56152;49.996;18.980;2023-03-01T11:11:43;24.70;;;13.35;;
43646;SDS011;56152;49.996;18.980;2023-03-01T11:16:47;22.33;;;12.65;;
43646;SDS011;56152;49.996;18.980;2023-03-01T11:21:52;21.40;;;12.13;;
43646;SDS011;56152;49.996;18.980;2023-03-01T11:27:14;24.98;;;14.30;;
43646;SDS011;56152;49.996;18.980;2023-03-01T11:32:20;21.92;;;14.18;;
43646;SDS011;56152;49.996;18.980;2023-03-01T11:37:29;20.90;;;11.55;;
43646;SDS011;56152;49.996;18.980;2023-03-01T11:42:40;27.33;;;14.23;;
43646;SDS011;56152;49.996;18.980;2023-03-01T11:53:29;21.00;;;12.02;;
43646;SDS011;56152;49.996;18.980;2023-03-01T12:04:11;28.38;;;13.60;;
43646;SDS011;56152;49.996;18.980;2023-03-01T12:09:38;24.77;;;14.00;;
43646;SDS011;56152;49.996;18.980;2023-03-01T12:14:59;30.65;;;18.88;;
43646;SDS011;56152;49.996;18.980;2023-03-01T12:20:18;40.40;;;23.58;;
43646;SDS011;56152;49.996;18.980;2023-03-01T12:25:25;22.15;;;13.73;;
43646;SDS011;56152;49.996;18.980;2023-03-01T12:30:42;40.63;;;24.85;;
43646;SDS011;56152;49.996;18.980;2023-03-01T12:41:37;31.50;;;16.77;;
43646;SDS011;56152;49.996;18.980;2023-03-01T12:46:56;32.13;;;19.95;;
43646;SDS011;56152;49.996;18.980;2023-03-01T12:52:09;42.38;;;22.95;;
43646;SDS011;56152;49.996;18.980;2023-03-01T12:57:31;33.28;;;16.52;;
43646;SDS011;56152;49.996;18.980;2023-03-01T13:02:42;31.55;;;19.33;;
43646;SDS011;56152;49.996;18.980;2023-03-01T13:07:52;35.55;;;21.33;;
43646;SDS011;56152;49.996;18.980;2023-03-01T13:23:36;43.58;;;20.45;;
43646;SDS011;56152;49.996;18.980;2023-03-01T13:28:41;32.47;;;16.65;;
43646;SDS011;56152;49.996;18.980;2023-03-01T13:33:52;37.88;;;21.60;;
43646;SDS011;56152;49.996;18.980;2023-03-01T13:38:56;35.17;;;18.70;;
43646;SDS011;56152;49.996;18.980;2023-03-01T13:43:59;29.95;;;16.95;;
43646;SDS011;56152;49.996;18.980;2023-03-01T13:49:09;22.92;;;12.48;;
43646;SDS011;56152;49.996;18.980;2023-03-01T13:54:16;23.05;;;13.45;;
43646;SDS011;56152;49.996;18.980;2023-03-01T13:59:25;24.17;;;12.80;;
43646;SDS011;56152;49.996;18.980;2023-03-01T14:04:32;20.60;;;11.95;;
43646;SDS011;56152;49.996;18.980;2023-03-01T14:09:36;31.10;;;14.45;;
43646;SDS011;56152;49.996;18.980;2023-03-01T14:14:44;28.85;;;16.10;;
43646;SDS011;56152;49.996;18.980;2023-03-01T14:19:56;21.85;;;12.57;;
43646;SDS011;56152;49.996;18.980;2023-03-01T14:25:03;23.10;;;12.50;;
43646;SDS011;56152;49.996;18.980;2023-03-01T14:30:19;25.05;;;14.05;;
43646;SDS011;56152;49.996;18.980;2023-03-01T14:35:27;46.38;;;16.70;;
43646;SDS011;56152;49.996;18.980;2023-03-01T14:40:32;22.83;;;14.10;;
43646;SDS011;56152;49.996;18.980;2023-03-01T14:45:36;25.70;;;15.07;;
43646;SDS011;56152;49.996;18.980;2023-03-01T14:50:42;32.03;;;16.98;;
43646;SDS011;56152;49.996;18.980;2023-03-01T14:55:46;29.55;;;15.50;;
43646;SDS011;56152;49.996;18.980;2023-03-01T15:00:53;26.90;;;16.08;;
43646;SDS011;56152;49.996;18.980;2023-03-01T15:06:01;33.28;;;18.23;;
43646;SDS011;56152;49.996;18.980;2023-03-01T15:11:15;34.92;;;20.25;;
43646;SDS011;56152;49.996;18.980;2023-03-01T15:16:23;30.33;;;16.02;;
43646;SDS011;56152;49.996;18.980;2023-03-01T15:21:31;34.55;;;19.27;;
43646;SDS011;56152;49.996;18.980;2023-03-01T15:26:35;27.27;;;16.35;;
43646;SDS011;56152;49.996;18.980;2023-03-01T15:31:52;25.67;;;16.20;;
43646;SDS011;56152;49.996;18.980;2023-03-01T15:37:00;35.22;;;18.20;;
43646;SDS011;56152;49.996;18.980;2023-03-01T15:42:06;28.88;;;15.20;;
43646;SDS011;56152;49.996;18.980;2023-03-01T15:47:25;29.00;;;17.35;;
43646;SDS011;56152;49.996;18.980;2023-03-01T15:52:36;24.70;;;14.27;;
43646;SDS011;56152;49.996;18.980;2023-03-01T15:57:42;23.90;;;12.63;;
43646;SDS011;56152;49.996;18.980;2023-03-01T16:02:45;22.20;;;13.02;;
43646;SDS011;56152;49.996;18.980;2023-03-01T16:07:49;41.97;;;21.55;;
43646;SDS011;56152;49.996;18.980;2023-03-01T16:12:52;33.05;;;16.80;;
43646;SDS011;56152;49.996;18.980;2023-03-01T16:17:55;61.40;;;31.20;;
43646;SDS011;56152;49.996;18.980;2023-03-01T16:22:59;46.90;;;26.02;;
43646;SDS011;56152;49.996;18.980;2023-03-01T16:28:03;51.80;;;28.70;;
43646;SDS011;56152;49.996;18.980;2023-03-01T16:33:08;47.58;;;23.20;;
43646;SDS011;56152;49.996;18.980;2023-03-01T16:38:13;59.97;;;28.27;;
43646;SDS011;56152;49.996;18.980;2023-03-01T16:43:15;56.13;;;30.70;;
43646;SDS011;56152;49.996;18.980;2023-03-01T16:48:20;162.18;;;64.35;;
43646;SDS011;56152;49.996;18.980;2023-03-01T16:53:25;69.78;;;34.95;;
43646;SDS011;56152;49.996;18.980;2023-03-01T16:58:29;63.27;;;30.23;;
43646;SDS011;56152;49.996;18.980;2023-03-01T17:03:31;54.60;;;25.20;;
43646;SDS011;56152;49.996;18.980;2023-03-01T17:08:36;45.97;;;22.80;;
43646;SDS011;56152;49.996;18.980;2023-03-01T17:13:40;43.53;;;22.70;;
43646;SDS011;56152;49.996;18.980;2023-03-01T17:18:46;55.23;;;24.77;;
43646;SDS011;56152;49.996;18.980;2023-03-01T17:23:53;50.87;;;23.20;;
43646;SDS011;56152;49.996;18.980;2023-03-01T17:28:57;80.10;;;32.30;;
43646;SDS011;56152;49.996;18.980;2023-03-01T17:34:00;87.43;;;43.33;;
43646;SDS011;56152;49.996;18.980;2023-03-01T17:39:05;116.17;;;51.10;;
43646;SDS011;56152;49.996;18.980;2023-03-01T17:44:08;232.80;;;91.90;;
43646;SDS011;56152;49.996;18.980;2023-03-01T17:49:12;260.20;;;112.93;;
43646;SDS011;56152;49.996;18.980;2023-03-01T17:54:24;224.83;;;83.80;;
43646;SDS011;56152;49.996;18.980;2023-03-01T17:59:27;164.93;;;68.83;;
43646;SDS011;56152;49.996;18.980;2023-03-01T18:04:33;149.37;;;56.97;;
43646;SDS011;56152;49.996;18.980;2023-03-01T18:09:41;191.27;;;68.27;;
43646;SDS011;56152;49.996;18.980;2023-03-01T18:14:43;130.57;;;53.37;;
43646;SDS011;56152;49.996;18.980;2023-03-01T18:19:45;154.20;;;58.97;;
43646;SDS011;56152;49.996;18.980;2023-03-01T18:24:50;163.47;;;60.90;;
43646;SDS011;56152;49.996;18.980;2023-03-01T18:29:55;235.33;;;84.67;;
43646;SDS011;56152;49.996;18.980;2023-03-01T18:34:58;253.70;;;86.47;;
43646;SDS011;56152;49.996;18.980;2023-03-01T18:40:04;223.50;;;77.87;;
43646;SDS011;56152;49.996;18.980;2023-03-01T18:45:09;214.80;;;81.60;;
43646;SDS011;56152;49.996;18.980;2023-03-01T18:50:13;210.53;;;75.40;;
43646;SDS011;56152;49.996;18.980;2023-03-01T18:55:17;170.50;;;66.90;;
43646;SDS011;56152;49.996;18.980;2023-03-01T19:00:20;172.47;;;68.67;;
43646;SDS011;56152;49.996;18.980;2023-03-01T19:05:23;185.27;;;77.13;;
43646;SDS011;56152;49.996;18.980;2023-03-01T19:10:28;175.37;;;73.50;;
43646;SDS011;56152;49.996;18.980;2023-03-01T19:15:30;176.77;;;77.07;;
43646;SDS011;56152;49.996;18.980;2023-03-01T19:20:32;163.17;;;64.80;;
43646;SDS011;56152;49.996;18.980;2023-03-01T19:25:40;217.60;;;86.53;;
43646;SDS011;56152;49.996;18.980;2023-03-01T19:30:42;172.57;;;68.73;;
43646;SDS011;56152;49.996;18.980;2023-03-01T19:35:46;175.47;;;69.97;;
43646;SDS011;56152;49.996;18.980;2023-03-01T19:40:53;164.30;;;60.80;;
43646;SDS011;56152;49.996;18.980;2023-03-01T19:45:56;175.20;;;63.03;;
43646;SDS011;56152;49.996;18.980;2023-03-01T19:51:02;179.00;;;67.10;;
43646;SDS011;56152;49.996;18.980;2023-03-01T19:56:08;175.43;;;64.03;;
43646;SDS011;56152;49.996;18.980;2023-03-01T20:01:15;185.73;;;70.13;;
43646;SDS011;56152;49.996;18.980;2023-03-01T20:06:21;180.48;;;72.00;;
43646;SDS011;56152;49.996;18.980;2023-03-01T20:11:28;157.60;;;62.87;;
43646;SDS011;56152;49.996;18.980;2023-03-01T20:16:34;199.83;;;72.80;;
43646;SDS011;56152;49.996;18.980;2023-03-01T20:21:36;181.07;;;64.17;;
43646;SDS011;56152;49.996;18.980;2023-03-01T20:26:41;211.17;;;75.13;;
43646;SDS011;56152;49.996;18.980;2023-03-01T20:31:43;231.27;;;91.23;;
43646;SDS011;56152;49.996;18.980;2023-03-01T20:36:45;159.53;;;60.97;;
43646;SDS011;56152;49.996;18.980;2023-03-01T20:41:50;240.60;;;81.10;;
43646;SDS011;56152;49.996;18.980;2023-03-01T20:46:53;246.60;;;81.93;;
43646;SDS011;56152;49.996;18.980;2023-03-01T20:51:57;310.33;;;113.03;;
43646;SDS011;56152;49.996;18.980;2023-03-01T20:57:02;273.80;;;101.90;;
43646;SDS011;56152;49.996;18.980;2023-03-01T21:02:04;250.30;;;93.50;;
43646;SDS011;56152;49.996;18.980;2023-03-01T21:07:07;191.63;;;75.07;;
43646;SDS011;56152;49.996;18.980;2023-03-01T21:12:12;189.07;;;72.80;;
43646;SDS011;56152;49.996;18.980;2023-03-01T21:17:16;195.17;;;66.13;;
43646;SDS011;56152;49.996;18.980;2023-03-01T21:22:18;199.33;;;67.40;;
43646;SDS011;56152;49.996;18.980;2023-03-01T21:27:23;168.47;;;53.03;;
43646;SDS011;56152;49.996;18.980;2023-03-01T21:32:25;159.80;;;53.77;;
43646;SDS011;56152;49.996;18.980;2023-03-01T21:37:28;178.17;;;59.53;;
43646;SDS011;56152;49.996;18.980;2023-03-01T21:42:36;266.20;;;79.83;;
43646;SDS011;56152;49.996;18.980;2023-03-01T21:47:39;179.90;;;58.03;;
43646;SDS011;56152;49.996;18.980;2023-03-01T21:52:42;162.93;;;59.57;;
43646;SDS011;56152;49.996;18.980;2023-03-01T21:57:47;221.37;;;72.43;;
43646;SDS011;56152;49.996;18.980;2023-03-01T22:02:49;171.37;;;61.47;;
43646;SDS011;56152;49.996;18.980;2023-03-01T22:07:57;133.67;;;52.87;;
43646;SDS011;56152;49.996;18.980;2023-03-01T22:13:01;151.50;;;53.10;;
43646;SDS011;56152;49.996;18.980;2023-03-01T22:18:07;129.13;;;47.40;;
43646;SDS011;56152;49.996;18.980;2023-03-01T22:23:11;158.63;;;52.53;;
43646;SDS011;56152;49.996;18.980;2023-03-01T22:28:16;157.37;;;58.40;;
43646;SDS011;56152;49.996;18.980;2023-03-01T22:33:19;156.83;;;54.77;;
43646;SDS011;56152;49.996;18.980;2023-03-01T22:38:22;160.20;;;56.93;;
43646;SDS011;56152;49.996;18.980;2023-03-01T22:43:27;202.83;;;63.57;;
43646;SDS011;56152;49.996;18.980;2023-03-01T22:48:30;257.93;;;77.00;;
43646;SDS011;56152;49.996;18.980;2023-03-01T22:53:32;227.77;;;73.30;;
43646;SDS011;56152;49.996;18.980;2023-03-01T22:58:37;178.93;;;58.77;;
43646;SDS011;56152;49.996;18.980;2023-03-01T23:03:40;208.63;;;65.77;;
43646;SDS011;56152;49.996;18.980;2023-03-01T23:08:43;162.90;;;50.83;;
43646;SDS011;56152;49.996;18.980;2023-03-01T23:13:51;171.80;;;55.47;;
43646;SDS011;56152;49.996;18.980;2023-03-01T23:18:54;140.13;;;48.33;;
43646;SDS011;56152;49.996;18.980;2023-03-01T23:23:58;157.47;;;51.53;;
43646;SDS011;56152;49.996;18.980;2023-03-01T23:29:03;119.10;;;42.57;;
43646;SDS011;56152;49.996;18.980;2023-03-01T23:34:05;120.80;;;45.07;;
43646;SDS011;56152;49.996;18.980;2023-03-01T23:39:07;105.93;;;41.87;;
43646;SDS011;56152;49.996;18.980;2023-03-01T23:44:14;106.93;;;42.07;;
43646;SDS011;56152;49.996;18.980;2023-03-01T23:49:17;102.70;;;40.87;;
43646;SDS011;56152;49.996;18.980;2023-03-01T23:54:22;107.80;;;45.13;;
43646;SDS011;56152;49.996;18.980;2023-03-01T23:59:27;111.70;;;44.30;;
